sensor_id;sensor_type;location;lat;lon;timestamp;P1;durP1;ratioP1;P2;durP2;ratioP2
15474;SDS011;7839;50.462;9.678;2024-03-23T00:53:47;1.70;;;1.60;;
15474;SDS011;7839;50.462;9.678;2024-03-23T01:00:27;1.70;;;1.60;;
15474;SDS011;7839;50.462;9.678;2024-03-23T01:07:07;1.53;;;1.43;;
15474;SDS011;7839;50.462;9.678;2024-03-23T01:13:47;1.50;;;1.40;;
15474;SDS011;7839;50.462;9.678;2024-03-23T01:20:28;1.63;;;1.50;;
15474;SDS011;7839;50.462;9.678;2024-03-23T01:27:08;1.50;;;1.40;;
15474;SDS011;7839;50.462;9.678;2024-03-23T01:33:48;1.93;;;1.50;;
15474;SDS011;7839;50.462;9.678;2024-03-23T01:40:28;1.60;;;1.50;;
15474;SDS011;7839;50.462;9.678;2024-03-23T01:47:12;1.20;;;1.10;;
15474;SDS011;7839;50.462;9.678;2024-03-23T01:53:52;1.10;;;1.00;;
15474;SDS011;7839;50.462;9.678;2024-03-23T02:00:33;7.83;;;6.83;;
15474;SDS011;7839;50.462;9.678;2024-03-23T02:07:13;1.67;;;1.57;;
15474;SDS011;7839;50.462;9.678;2024-03-23T02:13:53;1.90;;;1.37;;
15474;SDS011;7839;50.462;9.678;2024-03-23T02:20:34;0.90;;;0.90;;
15474;SDS011;7839;50.462;9.678;2024-03-23T02:27:14;0.90;;;0.90;;
15474;SDS011;7839;50.462;9.678;2024-03-23T02:33:54;1.07;;;1.07;;
15474;SDS011;7839;50.462;9.678;2024-03-23T02:40:34;0.80;;;0.80;;
15474;SDS011;7839;50.462;9.678;2024-03-23T02:47:15;0.80;;;0.80;;
15474;SDS011;7839;50.462;9.678;2024-03-23T02:53:55;0.90;;;0.90;;
15474;SDS011;7839;50.462;9.678;2024-03-23T03:00:35;1.10;;;1.00;;
15474;SDS011;7839;50.462;9.678;2024-03-23T03:07:15;0.90;;;0.90;;
15474;SDS011;7839;50.462;9.678;2024-03-23T03:13:55;0.90;;;0.90;;
15474;SDS011;7839;50.462;9.678;2024-03-23T03:20:39;0.97;;;0.93;;
15474;SDS011;7839;50.462;9.678;2024-03-23T03:27:19;0.90;;;0.90;;
15474;SDS011;7839;50.462;9.678;2024-03-23T03:34:00;0.80;;;0.80;;
15474;SDS011;7839;50.462;9.678;2024-03-23T03:40:41;9.17;;;7.80;;
15474;SDS011;7839;50.462;9.678;2024-03-23T03:47:21;10.53;;;9.40;;
15474;SDS011;7839;50.462;9.678;2024-03-23T03:54:02;17.67;;;11.97;;
15474;SDS011;7839;50.462;9.678;2024-03-23T04:00:42;2.00;;;1.90;;
15474;SDS011;7839;50.462;9.678;2024-03-23T04:07:22;1.80;;;1.70;;
15474;SDS011;7839;50.462;9.678;2024-03-23T04:14:02;1.57;;;1.47;;
15474;SDS011;7839;50.462;9.678;2024-03-23T04:20:43;1.83;;;1.73;;
15474;SDS011;7839;50.462;9.678;2024-03-23T04:27:23;1.87;;;1.47;;
15474;SDS011;7839;50.462;9.678;2024-03-23T04:34:03;1.73;;;1.63;;
15474;SDS011;7839;50.462;9.678;2024-03-23T04:40:44;2.20;;;2.10;;
15474;SDS011;7839;50.462;9.678;2024-03-23T04:47:26;2.37;;;2.17;;
15474;SDS011;7839;50.462;9.678;2024-03-23T04:54:06;3.20;;;2.90;;
15474;SDS011;7839;50.462;9.678;2024-03-23T05:00:46;4.03;;;2.80;;
15474;SDS011;7839;50.462;9.678;2024-03-23T05:07:26;2.93;;;2.73;;
15474;SDS011;7839;50.462;9.678;2024-03-23T05:14:06;2.90;;;2.70;;
15474;SDS011;7839;50.462;9.678;2024-03-23T05:20:47;3.13;;;2.93;;
15474;SDS011;7839;50.462;9.678;2024-03-23T05:27:27;3.33;;;3.13;;
15474;SDS011;7839;50.462;9.678;2024-03-23T05:34:08;7.40;;;5.70;;
15474;SDS011;7839;50.462;9.678;2024-03-23T05:47:35;2.13;;;2.03;;
15474;SDS011;7839;50.462;9.678;2024-03-23T05:54:15;6.30;;;3.07;;
15474;SDS011;7839;50.462;9.678;2024-03-23T06:00:59;1.80;;;1.40;;
15474;SDS011;7839;50.462;9.678;2024-03-23T06:07:40;5.07;;;2.93;;
15474;SDS011;7839;50.462;9.678;2024-03-23T06:14:20;3.13;;;1.50;;
15474;SDS011;7839;50.462;9.678;2024-03-23T06:21:01;1.60;;;0.80;;
15474;SDS011;7839;50.462;9.678;2024-03-23T06:27:41;1.17;;;1.17;;
15474;SDS011;7839;50.462;9.678;2024-03-23T06:34:21;1.15;;;0.88;;
15474;SDS011;7839;50.462;9.678;2024-03-23T06:41:03;0.70;;;0.70;;
15474;SDS011;7839;50.462;9.678;2024-03-23T06:47:43;0.20;;;0.20;;
15474;SDS011;7839;50.462;9.678;2024-03-23T06:54:24;1.50;;;0.63;;
15474;SDS011;7839;50.462;9.678;2024-03-23T07:01:04;0.30;;;0.30;;
15474;SDS011;7839;50.462;9.678;2024-03-23T07:07:44;1.37;;;0.80;;
15474;SDS011;7839;50.462;9.678;2024-03-23T07:14:24;0.83;;;0.80;;
15474;SDS011;7839;50.462;9.678;2024-03-23T07:21:05;0.10;;;0.10;;
15474;SDS011;7839;50.462;9.678;2024-03-23T07:27:46;0.43;;;0.43;;
15474;SDS011;7839;50.462;9.678;2024-03-23T07:34:26;0.20;;;0.20;;
15474;SDS011;7839;50.462;9.678;2024-03-23T07:41:19;0.50;;;0.50;;
15474;SDS011;7839;50.462;9.678;2024-03-23T07:48:00;0.90;;;0.80;;
15474;SDS011;7839;50.462;9.678;2024-03-23T07:54:40;0.40;;;0.40;;
15474;SDS011;7839;50.462;9.678;2024-03-23T08:01:20;3.43;;;0.83;;
15474;SDS011;7839;50.462;9.678;2024-03-23T08:08:00;1.77;;;0.50;;
15474;SDS011;7839;50.462;9.678;2024-03-23T08:14:41;0.73;;;0.73;;
15474;SDS011;7839;50.462;9.678;2024-03-23T08:21:21;1.65;;;0.60;;
15474;SDS011;7839;50.462;9.678;2024-03-23T08:28:01;0.63;;;0.50;;
15474;SDS011;7839;50.462;9.678;2024-03-23T08:34:41;2.43;;;0.50;;
15474;SDS011;7839;50.462;9.678;2024-03-23T08:41:21;0.60;;;0.60;;
15474;SDS011;7839;50.462;9.678;2024-03-23T08:48:02;1.03;;;0.30;;
15474;SDS011;7839;50.462;9.678;2024-03-23T08:54:42;0.70;;;0.47;;
15474;SDS011;7839;50.462;9.678;2024-03-23T09:01:22;2.60;;;1.60;;
15474;SDS011;7839;50.462;9.678;2024-03-23T09:08:03;1.43;;;0.40;;
15474;SDS011;7839;50.462;9.678;2024-03-23T09:14:43;0.90;;;0.90;;
15474;SDS011;7839;50.462;9.678;2024-03-23T09:21:23;1.07;;;0.60;;
15474;SDS011;7839;50.462;9.678;2024-03-23T09:28:03;1.73;;;1.10;;
15474;SDS011;7839;50.462;9.678;2024-03-23T09:34:44;0.37;;;0.37;;
15474;SDS011;7839;50.462;9.678;2024-03-23T09:41:24;0.47;;;0.47;;
15474;SDS011;7839;50.462;9.678;2024-03-23T09:48:04;0.77;;;0.50;;
15474;SDS011;7839;50.462;9.678;2024-03-23T09:54:45;3.93;;;2.07;;
15474;SDS011;7839;50.462;9.678;2024-03-23T10:01:25;8.93;;;5.13;;
15474;SDS011;7839;50.462;9.678;2024-03-23T10:08:23;6.33;;;2.63;;
15474;SDS011;7839;50.462;9.678;2024-03-23T10:15:07;6.63;;;2.67;;
15474;SDS011;7839;50.462;9.678;2024-03-23T10:21:55;2.20;;;1.60;;
15474;SDS011;7839;50.462;9.678;2024-03-23T10:28:36;2.07;;;1.40;;
15474;SDS011;7839;50.462;9.678;2024-03-23T10:35:17;4.40;;;2.77;;
15474;SDS011;7839;50.462;9.678;2024-03-23T10:42:02;5.77;;;2.40;;
15474;SDS011;7839;50.462;9.678;2024-03-23T10:48:43;2.97;;;1.83;;
15474;SDS011;7839;50.462;9.678;2024-03-23T10:55:23;4.70;;;1.80;;
15474;SDS011;7839;50.462;9.678;2024-03-23T11:02:04;4.97;;;2.70;;
15474;SDS011;7839;50.462;9.678;2024-03-23T11:08:44;5.00;;;1.97;;
15474;SDS011;7839;50.462;9.678;2024-03-23T11:15:25;2.10;;;1.53;;
15474;SDS011;7839;50.462;9.678;2024-03-23T11:22:06;3.97;;;1.47;;
15474;SDS011;7839;50.462;9.678;2024-03-23T11:28:46;3.07;;;1.53;;
15474;SDS011;7839;50.462;9.678;2024-03-23T11:35:27;2.43;;;1.10;;
15474;SDS011;7839;50.462;9.678;2024-03-23T11:42:07;2.13;;;1.50;;
15474;SDS011;7839;50.462;9.678;2024-03-23T11:48:50;3.40;;;1.30;;
15474;SDS011;7839;50.462;9.678;2024-03-23T12:02:26;3.00;;;1.30;;
15474;SDS011;7839;50.462;9.678;2024-03-23T12:09:06;1.90;;;1.00;;
15474;SDS011;7839;50.462;9.678;2024-03-23T12:15:47;1.00;;;0.90;;
15474;SDS011;7839;50.462;9.678;2024-03-23T12:22:27;1.30;;;1.20;;
15474;SDS011;7839;50.462;9.678;2024-03-23T12:29:09;1.40;;;1.00;;
15474;SDS011;7839;50.462;9.678;2024-03-23T12:35:50;2.03;;;1.03;;
15474;SDS011;7839;50.462;9.678;2024-03-23T12:42:30;2.87;;;1.17;;
15474;SDS011;7839;50.462;9.678;2024-03-23T12:49:10;2.43;;;1.03;;
15474;SDS011;7839;50.462;9.678;2024-03-23T12:55:50;2.70;;;1.40;;
15474;SDS011;7839;50.462;9.678;2024-03-23T13:02:30;1.33;;;0.93;;
15474;SDS011;7839;50.462;9.678;2024-03-23T13:09:11;3.40;;;1.03;;
15474;SDS011;7839;50.462;9.678;2024-03-23T13:15:51;1.70;;;1.23;;
15474;SDS011;7839;50.462;9.678;2024-03-23T13:22:31;0.73;;;0.70;;
15474;SDS011;7839;50.462;9.678;2024-03-23T13:29:11;1.50;;;1.00;;
15474;SDS011;7839;50.462;9.678;2024-03-23T13:35:52;1.53;;;1.13;;
15474;SDS011;7839;50.462;9.678;2024-03-23T13:42:32;2.30;;;0.97;;
15474;SDS011;7839;50.462;9.678;2024-03-23T13:49:18;2.43;;;1.00;;
15474;SDS011;7839;50.462;9.678;2024-03-23T13:56:00;0.90;;;0.80;;
15474;SDS011;7839;50.462;9.678;2024-03-23T14:02:41;2.23;;;0.90;;
15474;SDS011;7839;50.462;9.678;2024-03-23T14:09:21;1.53;;;0.70;;
15474;SDS011;7839;50.462;9.678;2024-03-23T14:16:03;0.80;;;0.80;;
15474;SDS011;7839;50.462;9.678;2024-03-23T14:22:43;2.97;;;1.00;;
15474;SDS011;7839;50.462;9.678;2024-03-23T14:29:24;1.53;;;0.77;;
15474;SDS011;7839;50.462;9.678;2024-03-23T14:36:05;0.60;;;0.60;;
15474;SDS011;7839;50.462;9.678;2024-03-23T14:42:45;1.17;;;0.60;;
15474;SDS011;7839;50.462;9.678;2024-03-23T14:49:25;1.63;;;0.83;;
15474;SDS011;7839;50.462;9.678;2024-03-23T14:56:06;0.77;;;0.60;;
15474;SDS011;7839;50.462;9.678;2024-03-23T15:02:47;1.03;;;0.90;;
15474;SDS011;7839;50.462;9.678;2024-03-23T15:09:27;1.17;;;0.80;;
15474;SDS011;7839;50.462;9.678;2024-03-23T15:16:07;0.93;;;0.63;;
15474;SDS011;7839;50.462;9.678;2024-03-23T15:22:47;1.17;;;0.53;;
15474;SDS011;7839;50.462;9.678;2024-03-23T15:29:27;1.03;;;0.50;;
15474;SDS011;7839;50.462;9.678;2024-03-23T15:36:08;0.80;;;0.60;;
15474;SDS011;7839;50.462;9.678;2024-03-23T15:42:48;1.27;;;0.83;;
15474;SDS011;7839;50.462;9.678;2024-03-23T15:49:28;1.07;;;0.70;;
15474;SDS011;7839;50.462;9.678;2024-03-23T15:56:09;1.13;;;0.70;;
15474;SDS011;7839;50.462;9.678;2024-03-23T16:02:50;0.50;;;0.50;;
15474;SDS011;7839;50.462;9.678;2024-03-23T16:09:30;1.00;;;0.60;;
15474;SDS011;7839;50.462;9.678;2024-03-23T16:16:10;0.60;;;0.60;;
15474;SDS011;7839;50.462;9.678;2024-03-23T16:22:50;0.50;;;0.40;;
15474;SDS011;7839;50.462;9.678;2024-03-23T16:29:30;1.37;;;1.00;;
15474;SDS011;7839;50.462;9.678;2024-03-23T16:36:11;0.70;;;0.70;;
15474;SDS011;7839;50.462;9.678;2024-03-23T16:42:53;0.60;;;0.60;;
15474;SDS011;7839;50.462;9.678;2024-03-23T16:49:34;0.80;;;0.80;;
15474;SDS011;7839;50.462;9.678;2024-03-23T16:56:15;0.60;;;0.60;;
15474;SDS011;7839;50.462;9.678;2024-03-23T17:02:55;1.50;;;0.90;;
15474;SDS011;7839;50.462;9.678;2024-03-23T17:09:37;3.30;;;1.10;;
15474;SDS011;7839;50.462;9.678;2024-03-23T17:16:26;0.90;;;0.90;;
15474;SDS011;7839;50.462;9.678;2024-03-23T17:23:10;1.00;;;0.90;;
15474;SDS011;7839;50.462;9.678;2024-03-23T17:29:50;1.20;;;1.00;;
15474;SDS011;7839;50.462;9.678;2024-03-23T17:36:30;0.80;;;0.80;;
15474;SDS011;7839;50.462;9.678;2024-03-23T17:43:11;1.10;;;0.90;;
15474;SDS011;7839;50.462;9.678;2024-03-23T17:49:51;1.07;;;0.80;;
15474;SDS011;7839;50.462;9.678;2024-03-23T17:56:31;0.60;;;0.60;;
15474;SDS011;7839;50.462;9.678;2024-03-23T18:03:11;1.57;;;0.90;;
15474;SDS011;7839;50.462;9.678;2024-03-23T18:09:52;1.30;;;0.80;;
15474;SDS011;7839;50.462;9.678;2024-03-23T18:16:32;1.30;;;1.00;;
15474;SDS011;7839;50.462;9.678;2024-03-23T18:23:12;1.37;;;1.27;;
15474;SDS011;7839;50.462;9.678;2024-03-23T18:29:54;0.97;;;0.90;;
15474;SDS011;7839;50.462;9.678;2024-03-23T18:36:34;2.37;;;1.80;;
15474;SDS011;7839;50.462;9.678;2024-03-23T18:43:15;1.47;;;1.00;;
15474;SDS011;7839;50.462;9.678;2024-03-23T18:49:55;0.80;;;0.80;;
15474;SDS011;7839;50.462;9.678;2024-03-23T18:56:35;1.00;;;1.00;;
15474;SDS011;7839;50.462;9.678;2024-03-23T19:03:15;1.07;;;0.93;;
15474;SDS011;7839;50.462;9.678;2024-03-23T19:09:56;0.87;;;0.80;;
15474;SDS011;7839;50.462;9.678;2024-03-23T19:16:36;0.77;;;0.77;;
15474;SDS011;7839;50.462;9.678;2024-03-23T19:23:16;0.83;;;0.83;;
15474;SDS011;7839;50.462;9.678;2024-03-23T19:29:56;1.07;;;0.90;;
15474;SDS011;7839;50.462;9.678;2024-03-23T19:36:36;0.90;;;0.70;;
15474;SDS011;7839;50.462;9.678;2024-03-23T19:43:17;1.37;;;0.87;;
15474;SDS011;7839;50.462;9.678;2024-03-23T19:49:57;0.80;;;0.80;;
15474;SDS011;7839;50.462;9.678;2024-03-23T19:56:39;1.00;;;1.00;;
15474;SDS011;7839;50.462;9.678;2024-03-23T20:03:19;0.80;;;0.80;;
15474;SDS011;7839;50.462;9.678;2024-03-23T20:10:00;0.70;;;0.70;;
15474;SDS011;7839;50.462;9.678;2024-03-23T20:16:40;1.00;;;1.00;;
15474;SDS011;7839;50.462;9.678;2024-03-23T20:23:20;1.60;;;0.80;;
15474;SDS011;7839;50.462;9.678;2024-03-23T20:30:03;0.90;;;0.87;;
15474;SDS011;7839;50.462;9.678;2024-03-23T20:36:44;1.07;;;0.83;;
15474;SDS011;7839;50.462;9.678;2024-03-23T20:43:25;0.90;;;0.90;;
15474;SDS011;7839;50.462;9.678;2024-03-23T20:50:06;1.17;;;0.90;;
15474;SDS011;7839;50.462;9.678;2024-03-23T20:56:47;1.10;;;1.00;;
15474;SDS011;7839;50.462;9.678;2024-03-23T21:03:27;0.97;;;0.97;;
15474;SDS011;7839;50.462;9.678;2024-03-23T21:10:07;0.97;;;0.77;;
15474;SDS011;7839;50.462;9.678;2024-03-23T21:16:47;1.60;;;0.80;;
15474;SDS011;7839;50.462;9.678;2024-03-23T21:23:28;1.17;;;1.00;;
15474;SDS011;7839;50.462;9.678;2024-03-23T21:30:12;0.93;;;0.80;;
15474;SDS011;7839;50.462;9.678;2024-03-23T21:36:52;0.90;;;0.87;;
15474;SDS011;7839;50.462;9.678;2024-03-23T21:43:33;1.07;;;0.83;;
15474;SDS011;7839;50.462;9.678;2024-03-23T21:50:13;1.00;;;0.90;;
15474;SDS011;7839;50.462;9.678;2024-03-23T21:56:53;0.90;;;0.87;;
15474;SDS011;7839;50.462;9.678;2024-03-23T22:03:34;1.10;;;0.83;;
15474;SDS011;7839;50.462;9.678;2024-03-23T22:10:14;1.23;;;0.67;;
15474;SDS011;7839;50.462;9.678;2024-03-23T22:16:54;1.00;;;1.00;;
15474;SDS011;7839;50.462;9.678;2024-03-23T22:23:34;0.57;;;0.57;;
15474;SDS011;7839;50.462;9.678;2024-03-23T22:30:15;0.70;;;0.70;;
15474;SDS011;7839;50.462;9.678;2024-03-23T22:36:55;5.63;;;0.90;;
15474;SDS011;7839;50.462;9.678;2024-03-23T22:43:35;0.63;;;0.63;;
15474;SDS011;7839;50.462;9.678;2024-03-23T22:50:15;0.93;;;0.80;;
15474;SDS011;7839;50.462;9.678;2024-03-23T22:56:55;1.03;;;1.00;;
15474;SDS011;7839;50.462;9.678;2024-03-23T23:03:35;0.80;;;0.80;;
15474;SDS011;7839;50.462;9.678;2024-03-23T23:10:16;1.00;;;1.00;;
15474;SDS011;7839;50.462;9.678;2024-03-23T23:16:56;0.93;;;0.90;;
15474;SDS011;7839;50.462;9.678;2024-03-23T23:23:36;1.63;;;1.03;;
15474;SDS011;7839;50.462;9.678;2024-03-23T23:30:17;1.50;;;1.00;;
15474;SDS011;7839;50.462;9.678;2024-03-23T23:36:57;1.20;;;0.87;;
15474;SDS011;7839;50.462;9.678;2024-03-23T23:43:37;1.27;;;0.80;;
15474;SDS011;7839;50.462;9.678;2024-03-23T23:50:17;0.60;;;0.60;;
15474;SDS011;7839;50.462;9.678;2024-03-23T23:56:57;1.37;;;0.70;;
